sensor_id;sensor_type;location;lat;lon;timestamp;P1;durP1;ratioP1;P2;durP2;ratioP2
25948;SDS011;13961;51.178;4.448;2022-07-30T00:00:27;11.65;;;4.93;;
25948;SDS011;13961;51.178;4.448;2022-07-30T00:02:52;12.48;;;4.93;;
25948;SDS011;13961;51.178;4.448;2022-07-30T00:05:18;13.27;;;4.85;;
25948;SDS011;13961;51.178;4.448;2022-07-30T00:07:45;13.25;;;5.30;;
25948;SDS011;13961;51.178;4.448;2022-07-30T00:10:11;8.00;;;4.50;;
25948;SDS011;13961;51.178;4.448;2022-07-30T00:12:37;6.15;;;4.38;;
25948;SDS011;13961;51.178;4.448;2022-07-30T00:15:03;9.48;;;4.35;;
25948;SDS011;13961;51.178;4.448;2022-07-30T00:17:29;9.52;;;4.47;;
25948;SDS011;13961;51.178;4.448;2022-07-30T00:19:55;6.55;;;4.55;;
25948;SDS011;13961;51.178;4.448;2022-07-30T00:22:20;7.95;;;4.43;;
25948;SDS011;13961;51.178;4.448;2022-07-30T00:24:46;9.43;;;4.40;;
25948;SDS011;13961;51.178;4.448;2022-07-30T00:27:12;11.25;;;5.25;;
25948;SDS011;13961;51.178;4.448;2022-07-30T00:29:38;9.43;;;4.60;;
25948;SDS011;13961;51.178;4.448;2022-07-30T00:32:04;7.95;;;4.63;;
25948;SDS011;13961;51.178;4.448;2022-07-30T00:34:30;6.43;;;4.65;;
25948;SDS011;13961;51.178;4.448;2022-07-30T00:36:56;7.00;;;4.93;;
25948;SDS011;13961;51.178;4.448;2022-07-30T00:39:22;6.68;;;4.68;;
25948;SDS011;13961;51.178;4.448;2022-07-30T00:41:54;8.93;;;4.35;;
25948;SDS011;13961;51.178;4.448;2022-07-30T00:44:25;9.82;;;4.50;;
25948;SDS011;13961;51.178;4.448;2022-07-30T00:46:52;11.00;;;4.40;;
25948;SDS011;13961;51.178;4.448;2022-07-30T00:49:18;5.65;;;4.25;;
25948;SDS011;13961;51.178;4.448;2022-07-30T00:51:44;10.07;;;4.25;;
25948;SDS011;13961;51.178;4.448;2022-07-30T00:54:10;6.90;;;3.90;;
25948;SDS011;13961;51.178;4.448;2022-07-30T00:56:38;6.22;;;3.63;;
25948;SDS011;13961;51.178;4.448;2022-07-30T00:59:04;7.57;;;4.10;;
25948;SDS011;13961;51.178;4.448;2022-07-30T01:01:30;5.88;;;3.28;;
25948;SDS011;13961;51.178;4.448;2022-07-30T01:03:57;5.65;;;4.30;;
25948;SDS011;13961;51.178;4.448;2022-07-30T01:06:22;7.45;;;3.58;;
25948;SDS011;13961;51.178;4.448;2022-07-30T01:08:48;5.75;;;3.55;;
25948;SDS011;13961;51.178;4.448;2022-07-30T01:11:14;5.88;;;3.47;;
25948;SDS011;13961;51.178;4.448;2022-07-30T01:13:40;5.40;;;3.40;;
25948;SDS011;13961;51.178;4.448;2022-07-30T01:16:06;6.22;;;3.78;;
25948;SDS011;13961;51.178;4.448;2022-07-30T01:18:33;5.72;;;3.65;;
25948;SDS011;13961;51.178;4.448;2022-07-30T01:21:20;4.03;;;3.47;;
25948;SDS011;13961;51.178;4.448;2022-07-30T01:23:54;7.38;;;3.72;;
25948;SDS011;13961;51.178;4.448;2022-07-30T01:26:25;5.15;;;3.53;;
25948;SDS011;13961;51.178;4.448;2022-07-30T01:28:52;7.45;;;3.63;;
25948;SDS011;13961;51.178;4.448;2022-07-30T01:31:20;5.63;;;3.47;;
25948;SDS011;13961;51.178;4.448;2022-07-30T01:33:48;6.35;;;4.18;;
25948;SDS011;13961;51.178;4.448;2022-07-30T01:36:15;4.70;;;3.22;;
25948;SDS011;13961;51.178;4.448;2022-07-30T01:38:44;7.70;;;3.55;;
25948;SDS011;13961;51.178;4.448;2022-07-30T01:41:12;5.07;;;3.70;;
25948;SDS011;13961;51.178;4.448;2022-07-30T01:43:39;4.82;;;3.75;;
25948;SDS011;13961;51.178;4.448;2022-07-30T01:46:07;5.88;;;3.88;;
25948;SDS011;13961;51.178;4.448;2022-07-30T01:48:37;4.80;;;3.70;;
25948;SDS011;13961;51.178;4.448;2022-07-30T01:51:05;4.97;;;3.65;;
25948;SDS011;13961;51.178;4.448;2022-07-30T01:53:33;8.75;;;3.85;;
25948;SDS011;13961;51.178;4.448;2022-07-30T01:56:02;6.60;;;4.90;;
25948;SDS011;13961;51.178;4.448;2022-07-30T01:58:30;8.13;;;4.28;;
25948;SDS011;13961;51.178;4.448;2022-07-30T02:00:59;7.63;;;4.38;;
25948;SDS011;13961;51.178;4.448;2022-07-30T02:03:25;11.00;;;5.78;;
25948;SDS011;13961;51.178;4.448;2022-07-30T02:05:56;7.85;;;5.22;;
25948;SDS011;13961;51.178;4.448;2022-07-30T02:13:38;10.88;;;6.13;;
25948;SDS011;13961;51.178;4.448;2022-07-30T02:19:01;12.05;;;7.38;;
25948;SDS011;13961;51.178;4.448;2022-07-30T02:21:35;12.82;;;8.48;;
25948;SDS011;13961;51.178;4.448;2022-07-30T02:24:04;15.75;;;9.75;;
25948;SDS011;13961;51.178;4.448;2022-07-30T02:26:34;16.95;;;8.77;;
25948;SDS011;13961;51.178;4.448;2022-07-30T02:29:03;14.35;;;9.77;;
25948;SDS011;13961;51.178;4.448;2022-07-30T02:31:30;16.75;;;10.75;;
25948;SDS011;13961;51.178;4.448;2022-07-30T02:33:58;17.58;;;9.75;;
25948;SDS011;13961;51.178;4.448;2022-07-30T02:36:27;16.60;;;10.18;;
25948;SDS011;13961;51.178;4.448;2022-07-30T02:38:55;22.15;;;11.80;;
25948;SDS011;13961;51.178;4.448;2022-07-30T02:41:22;22.50;;;11.40;;
25948;SDS011;13961;51.178;4.448;2022-07-30T02:43:51;24.05;;;12.27;;
25948;SDS011;13961;51.178;4.448;2022-07-30T02:46:18;20.60;;;11.05;;
25948;SDS011;13961;51.178;4.448;2022-07-30T02:48:46;21.13;;;11.02;;
25948;SDS011;13961;51.178;4.448;2022-07-30T02:51:16;17.73;;;11.18;;
25948;SDS011;13961;51.178;4.448;2022-07-30T02:53:44;22.67;;;12.27;;
25948;SDS011;13961;51.178;4.448;2022-07-30T02:56:11;24.83;;;12.48;;
25948;SDS011;13961;51.178;4.448;2022-07-30T02:58:40;25.15;;;13.27;;
25948;SDS011;13961;51.178;4.448;2022-07-30T03:01:10;23.65;;;13.00;;
25948;SDS011;13961;51.178;4.448;2022-07-30T03:03:39;20.48;;;12.20;;
25948;SDS011;13961;51.178;4.448;2022-07-30T03:06:08;18.35;;;12.50;;
25948;SDS011;13961;51.178;4.448;2022-07-30T03:08:35;22.77;;;12.57;;
25948;SDS011;13961;51.178;4.448;2022-07-30T03:11:02;20.45;;;11.77;;
25948;SDS011;13961;51.178;4.448;2022-07-30T03:13:28;20.52;;;12.00;;
25948;SDS011;13961;51.178;4.448;2022-07-30T03:15:55;23.58;;;12.30;;
25948;SDS011;13961;51.178;4.448;2022-07-30T03:18:22;19.05;;;11.65;;
25948;SDS011;13961;51.178;4.448;2022-07-30T03:20:52;24.08;;;11.98;;
25948;SDS011;13961;51.178;4.448;2022-07-30T03:23:20;24.77;;;13.40;;
25948;SDS011;13961;51.178;4.448;2022-07-30T03:25:53;16.20;;;11.90;;
25948;SDS011;13961;51.178;4.448;2022-07-30T03:28:21;21.65;;;11.90;;
25948;SDS011;13961;51.178;4.448;2022-07-30T03:30:48;24.02;;;12.65;;
25948;SDS011;13961;51.178;4.448;2022-07-30T03:33:14;21.52;;;12.25;;
25948;SDS011;13961;51.178;4.448;2022-07-30T03:35:41;21.02;;;12.80;;
25948;SDS011;13961;51.178;4.448;2022-07-30T03:38:14;18.75;;;12.07;;
25948;SDS011;13961;51.178;4.448;2022-07-30T03:40:41;20.75;;;12.18;;
25948;SDS011;13961;51.178;4.448;2022-07-30T03:43:08;24.83;;;13.05;;
25948;SDS011;13961;51.178;4.448;2022-07-30T03:45:36;19.95;;;12.10;;
25948;SDS011;13961;51.178;4.448;2022-07-30T03:48:04;21.17;;;12.50;;
25948;SDS011;13961;51.178;4.448;2022-07-30T03:50:33;20.77;;;12.77;;
25948;SDS011;13961;51.178;4.448;2022-07-30T03:53:01;22.48;;;12.00;;
25948;SDS011;13961;51.178;4.448;2022-07-30T03:55:28;20.63;;;11.23;;
25948;SDS011;13961;51.178;4.448;2022-07-30T03:57:54;21.63;;;11.60;;
25948;SDS011;13961;51.178;4.448;2022-07-30T04:00:20;20.92;;;12.25;;
25948;SDS011;13961;51.178;4.448;2022-07-30T04:02:46;21.83;;;11.82;;
25948;SDS011;13961;51.178;4.448;2022-07-30T04:05:13;21.23;;;13.13;;
25948;SDS011;13961;51.178;4.448;2022-07-30T04:07:40;19.25;;;11.90;;
25948;SDS011;13961;51.178;4.448;2022-07-30T04:10:06;21.58;;;11.93;;
25948;SDS011;13961;51.178;4.448;2022-07-30T04:12:32;19.58;;;11.57;;
25948;SDS011;13961;51.178;4.448;2022-07-30T04:14:58;24.42;;;12.52;;
25948;SDS011;13961;51.178;4.448;2022-07-30T04:20:11;19.58;;;11.32;;
25948;SDS011;13961;51.178;4.448;2022-07-30T04:22:41;23.52;;;11.35;;
25948;SDS011;13961;51.178;4.448;2022-07-30T04:25:07;24.10;;;11.57;;
25948;SDS011;13961;51.178;4.448;2022-07-30T04:27:33;17.90;;;10.68;;
25948;SDS011;13961;51.178;4.448;2022-07-30T04:30:00;22.83;;;11.07;;
25948;SDS011;13961;51.178;4.448;2022-07-30T04:32:26;18.85;;;9.98;;
25948;SDS011;13961;51.178;4.448;2022-07-30T04:34:53;18.65;;;10.60;;
25948;SDS011;13961;51.178;4.448;2022-07-30T04:37:21;16.23;;;9.70;;
25948;SDS011;13961;51.178;4.448;2022-07-30T04:39:48;15.52;;;9.93;;
25948;SDS011;13961;51.178;4.448;2022-07-30T04:42:18;19.17;;;9.82;;
25948;SDS011;13961;51.178;4.448;2022-07-30T04:44:44;16.48;;;9.30;;
25948;SDS011;13961;51.178;4.448;2022-07-30T04:47:10;14.30;;;9.23;;
25948;SDS011;13961;51.178;4.448;2022-07-30T04:49:36;16.55;;;8.98;;
25948;SDS011;13961;51.178;4.448;2022-07-30T04:52:03;15.05;;;9.32;;
25948;SDS011;13961;51.178;4.448;2022-07-30T04:54:37;13.32;;;8.27;;
25948;SDS011;13961;51.178;4.448;2022-07-30T04:57:06;13.15;;;8.10;;
25948;SDS011;13961;51.178;4.448;2022-07-30T04:59:34;12.27;;;8.07;;
25948;SDS011;13961;51.178;4.448;2022-07-30T05:02:01;12.23;;;8.23;;
25948;SDS011;13961;51.178;4.448;2022-07-30T05:04:28;12.95;;;7.65;;
25948;SDS011;13961;51.178;4.448;2022-07-30T05:06:56;13.82;;;7.45;;
25948;SDS011;13961;51.178;4.448;2022-07-30T05:09:22;15.63;;;8.25;;
25948;SDS011;13961;51.178;4.448;2022-07-30T05:11:52;15.55;;;8.43;;
25948;SDS011;13961;51.178;4.448;2022-07-30T05:14:19;12.98;;;7.93;;
25948;SDS011;13961;51.178;4.448;2022-07-30T05:16:45;11.93;;;7.70;;
25948;SDS011;13961;51.178;4.448;2022-07-30T05:19:11;11.88;;;7.90;;
25948;SDS011;13961;51.178;4.448;2022-07-30T05:21:37;12.18;;;8.00;;
25948;SDS011;13961;51.178;4.448;2022-07-30T05:24:03;13.00;;;6.80;;
25948;SDS011;13961;51.178;4.448;2022-07-30T05:26:29;13.10;;;7.97;;
25948;SDS011;13961;51.178;4.448;2022-07-30T05:28:55;13.07;;;7.68;;
25948;SDS011;13961;51.178;4.448;2022-07-30T05:31:20;12.35;;;8.05;;
25948;SDS011;13961;51.178;4.448;2022-07-30T05:33:46;11.68;;;6.97;;
25948;SDS011;13961;51.178;4.448;2022-07-30T05:36:13;11.65;;;7.20;;
25948;SDS011;13961;51.178;4.448;2022-07-30T05:38:38;13.30;;;6.65;;
25948;SDS011;13961;51.178;4.448;2022-07-30T05:41:04;11.32;;;6.38;;
25948;SDS011;13961;51.178;4.448;2022-07-30T05:43:30;11.20;;;6.90;;
25948;SDS011;13961;51.178;4.448;2022-07-30T05:45:55;9.80;;;6.28;;
25948;SDS011;13961;51.178;4.448;2022-07-30T05:48:21;8.77;;;5.80;;
25948;SDS011;13961;51.178;4.448;2022-07-30T05:50:47;9.02;;;5.82;;
25948;SDS011;13961;51.178;4.448;2022-07-30T05:53:13;8.73;;;6.15;;
25948;SDS011;13961;51.178;4.448;2022-07-30T05:55:38;10.25;;;6.63;;
25948;SDS011;13961;51.178;4.448;2022-07-30T05:58:04;7.47;;;5.68;;
25948;SDS011;13961;51.178;4.448;2022-07-30T06:00:30;9.20;;;6.15;;
25948;SDS011;13961;51.178;4.448;2022-07-30T06:02:55;9.30;;;5.82;;
25948;SDS011;13961;51.178;4.448;2022-07-30T06:05:21;9.20;;;5.28;;
25948;SDS011;13961;51.178;4.448;2022-07-30T06:07:47;11.23;;;5.35;;
25948;SDS011;13961;51.178;4.448;2022-07-30T06:10:12;6.85;;;5.63;;
25948;SDS011;13961;51.178;4.448;2022-07-30T06:12:38;8.82;;;4.95;;
25948;SDS011;13961;51.178;4.448;2022-07-30T06:15:05;11.13;;;5.50;;
25948;SDS011;13961;51.178;4.448;2022-07-30T06:17:32;10.25;;;5.60;;
25948;SDS011;13961;51.178;4.448;2022-07-30T06:19:58;10.07;;;5.15;;
25948;SDS011;13961;51.178;4.448;2022-07-30T06:22:25;7.60;;;5.05;;
25948;SDS011;13961;51.178;4.448;2022-07-30T06:24:50;9.25;;;4.93;;
25948;SDS011;13961;51.178;4.448;2022-07-30T06:27:16;6.53;;;4.45;;
25948;SDS011;13961;51.178;4.448;2022-07-30T06:29:42;8.30;;;5.25;;
25948;SDS011;13961;51.178;4.448;2022-07-30T06:32:07;8.00;;;4.97;;
25948;SDS011;13961;51.178;4.448;2022-07-30T06:34:33;7.28;;;4.63;;
25948;SDS011;13961;51.178;4.448;2022-07-30T06:36:59;6.82;;;4.68;;
25948;SDS011;13961;51.178;4.448;2022-07-30T06:39:24;9.15;;;5.50;;
25948;SDS011;13961;51.178;4.448;2022-07-30T06:41:50;10.15;;;6.45;;
25948;SDS011;13961;51.178;4.448;2022-07-30T06:44:15;9.75;;;5.97;;
25948;SDS011;13961;51.178;4.448;2022-07-30T06:46:41;10.07;;;5.75;;
25948;SDS011;13961;51.178;4.448;2022-07-30T06:49:07;12.15;;;6.13;;
25948;SDS011;13961;51.178;4.448;2022-07-30T06:51:32;11.13;;;5.53;;
25948;SDS011;13961;51.178;4.448;2022-07-30T06:53:58;7.63;;;4.90;;
25948;SDS011;13961;51.178;4.448;2022-07-30T06:56:23;7.22;;;5.47;;
25948;SDS011;13961;51.178;4.448;2022-07-30T06:58:49;10.98;;;5.65;;
25948;SDS011;13961;51.178;4.448;2022-07-30T07:01:14;7.88;;;4.75;;
25948;SDS011;13961;51.178;4.448;2022-07-30T07:03:40;6.85;;;5.07;;
25948;SDS011;13961;51.178;4.448;2022-07-30T07:06:06;5.82;;;4.47;;
25948;SDS011;13961;51.178;4.448;2022-07-30T07:08:34;8.00;;;4.70;;
25948;SDS011;13961;51.178;4.448;2022-07-30T07:11:00;4.80;;;3.80;;
25948;SDS011;13961;51.178;4.448;2022-07-30T07:13:26;7.47;;;5.05;;
25948;SDS011;13961;51.178;4.448;2022-07-30T07:15:51;7.85;;;5.30;;
25948;SDS011;13961;51.178;4.448;2022-07-30T07:18:17;6.63;;;4.80;;
25948;SDS011;13961;51.178;4.448;2022-07-30T07:20:42;6.47;;;5.28;;
25948;SDS011;13961;51.178;4.448;2022-07-30T07:23:10;5.88;;;5.10;;
25948;SDS011;13961;51.178;4.448;2022-07-30T07:25:36;10.43;;;5.45;;
25948;SDS011;13961;51.178;4.448;2022-07-30T07:28:02;9.90;;;5.40;;
25948;SDS011;13961;51.178;4.448;2022-07-30T07:30:28;8.55;;;5.28;;
25948;SDS011;13961;51.178;4.448;2022-07-30T07:32:54;8.13;;;5.15;;
25948;SDS011;13961;51.178;4.448;2022-07-30T07:35:20;7.68;;;5.35;;
25948;SDS011;13961;51.178;4.448;2022-07-30T07:37:45;7.93;;;4.72;;
25948;SDS011;13961;51.178;4.448;2022-07-30T07:40:11;8.73;;;4.68;;
25948;SDS011;13961;51.178;4.448;2022-07-30T07:42:37;6.20;;;4.50;;
25948;SDS011;13961;51.178;4.448;2022-07-30T07:45:02;5.45;;;4.10;;
25948;SDS011;13961;51.178;4.448;2022-07-30T07:47:29;6.93;;;3.85;;
25948;SDS011;13961;51.178;4.448;2022-07-30T07:49:54;7.57;;;3.72;;
25948;SDS011;13961;51.178;4.448;2022-07-30T07:52:20;7.22;;;3.83;;
25948;SDS011;13961;51.178;4.448;2022-07-30T07:54:46;4.60;;;3.47;;
25948;SDS011;13961;51.178;4.448;2022-07-30T07:57:11;5.57;;;4.03;;
25948;SDS011;13961;51.178;4.448;2022-07-30T07:59:37;8.20;;;3.80;;
25948;SDS011;13961;51.178;4.448;2022-07-30T08:02:03;3.55;;;3.25;;
25948;SDS011;13961;51.178;4.448;2022-07-30T08:04:28;5.88;;;3.78;;
25948;SDS011;13961;51.178;4.448;2022-07-30T08:06:54;4.25;;;3.17;;
25948;SDS011;13961;51.178;4.448;2022-07-30T08:09:20;3.90;;;3.30;;
25948;SDS011;13961;51.178;4.448;2022-07-30T08:11:45;4.40;;;3.60;;
25948;SDS011;13961;51.178;4.448;2022-07-30T08:14:11;4.53;;;3.60;;
25948;SDS011;13961;51.178;4.448;2022-07-30T08:16:38;3.85;;;3.45;;
25948;SDS011;13961;51.178;4.448;2022-07-30T08:19:03;5.00;;;3.13;;
25948;SDS011;13961;51.178;4.448;2022-07-30T08:21:29;4.40;;;3.55;;
25948;SDS011;13961;51.178;4.448;2022-07-30T08:23:55;4.00;;;3.28;;
25948;SDS011;13961;51.178;4.448;2022-07-30T08:26:20;4.45;;;3.20;;
25948;SDS011;13961;51.178;4.448;2022-07-30T08:28:46;4.90;;;3.50;;
25948;SDS011;13961;51.178;4.448;2022-07-30T08:31:11;4.05;;;3.40;;
25948;SDS011;13961;51.178;4.448;2022-07-30T08:33:37;5.38;;;3.53;;
25948;SDS011;13961;51.178;4.448;2022-07-30T08:36:03;5.68;;;3.65;;
25948;SDS011;13961;51.178;4.448;2022-07-30T08:38:29;4.25;;;3.10;;
25948;SDS011;13961;51.178;4.448;2022-07-30T08:40:54;5.68;;;2.92;;
25948;SDS011;13961;51.178;4.448;2022-07-30T08:43:20;3.72;;;3.25;;
25948;SDS011;13961;51.178;4.448;2022-07-30T08:45:49;4.40;;;3.35;;
25948;SDS011;13961;51.178;4.448;2022-07-30T08:48:16;3.75;;;3.00;;
25948;SDS011;13961;51.178;4.448;2022-07-30T08:50:45;3.65;;;3.00;;
25948;SDS011;13961;51.178;4.448;2022-07-30T08:53:11;4.63;;;3.60;;
25948;SDS011;13961;51.178;4.448;2022-07-30T08:55:38;4.47;;;3.00;;
25948;SDS011;13961;51.178;4.448;2022-07-30T08:58:05;5.20;;;3.20;;
25948;SDS011;13961;51.178;4.448;2022-07-30T09:00:45;3.30;;;2.80;;
25948;SDS011;13961;51.178;4.448;2022-07-30T09:03:10;7.60;;;3.28;;
25948;SDS011;13961;51.178;4.448;2022-07-30T09:05:36;5.60;;;3.03;;
25948;SDS011;13961;51.178;4.448;2022-07-30T09:08:03;5.32;;;2.55;;
25948;SDS011;13961;51.178;4.448;2022-07-30T09:10:28;3.58;;;3.20;;
25948;SDS011;13961;51.178;4.448;2022-07-30T09:12:54;5.28;;;3.08;;
25948;SDS011;13961;51.178;4.448;2022-07-30T09:15:20;4.03;;;2.70;;
25948;SDS011;13961;51.178;4.448;2022-07-30T09:17:52;3.22;;;2.92;;
25948;SDS011;13961;51.178;4.448;2022-07-30T09:20:36;5.88;;;2.80;;
25948;SDS011;13961;51.178;4.448;2022-07-30T09:23:03;4.10;;;2.80;;
25948;SDS011;13961;51.178;4.448;2022-07-30T09:25:39;3.40;;;2.38;;
25948;SDS011;13961;51.178;4.448;2022-07-30T09:28:07;2.60;;;2.40;;
25948;SDS011;13961;51.178;4.448;2022-07-30T09:36:02;5.93;;;3.20;;
25948;SDS011;13961;51.178;4.448;2022-07-30T09:41:19;3.78;;;2.80;;
25948;SDS011;13961;51.178;4.448;2022-07-30T09:44:05;3.28;;;2.50;;
25948;SDS011;13961;51.178;4.448;2022-07-30T09:46:41;7.30;;;2.97;;
25948;SDS011;13961;51.178;4.448;2022-07-30T09:49:20;4.82;;;2.90;;
25948;SDS011;13961;51.178;4.448;2022-07-30T09:51:50;4.95;;;2.88;;
25948;SDS011;13961;51.178;4.448;2022-07-30T09:54:16;3.38;;;2.65;;
25948;SDS011;13961;51.178;4.448;2022-07-30T09:56:42;3.42;;;2.20;;
25948;SDS011;13961;51.178;4.448;2022-07-30T09:59:26;5.22;;;2.47;;
25948;SDS011;13961;51.178;4.448;2022-07-30T10:01:56;3.60;;;2.40;;
25948;SDS011;13961;51.178;4.448;2022-07-30T10:04:25;2.92;;;2.38;;
25948;SDS011;13961;51.178;4.448;2022-07-30T10:06:51;3.63;;;2.20;;
25948;SDS011;13961;51.178;4.448;2022-07-30T10:09:28;3.47;;;2.50;;
25948;SDS011;13961;51.178;4.448;2022-07-30T10:12:01;2.90;;;2.50;;
25948;SDS011;13961;51.178;4.448;2022-07-30T10:14:32;4.97;;;2.38;;
25948;SDS011;13961;51.178;4.448;2022-07-30T10:16:59;5.05;;;2.55;;
25948;SDS011;13961;51.178;4.448;2022-07-30T10:19:25;3.67;;;2.20;;
25948;SDS011;13961;51.178;4.448;2022-07-30T10:21:52;2.80;;;2.50;;
25948;SDS011;13961;51.178;4.448;2022-07-30T10:24:21;3.88;;;2.53;;
25948;SDS011;13961;51.178;4.448;2022-07-30T10:26:48;8.15;;;3.05;;
25948;SDS011;13961;51.178;4.448;2022-07-30T10:29:15;3.92;;;2.58;;
25948;SDS011;13961;51.178;4.448;2022-07-30T10:31:42;3.72;;;2.55;;
25948;SDS011;13961;51.178;4.448;2022-07-30T10:34:09;4.07;;;2.85;;
25948;SDS011;13961;51.178;4.448;2022-07-30T10:36:36;2.90;;;2.30;;
25948;SDS011;13961;51.178;4.448;2022-07-30T10:39:04;5.38;;;2.97;;
25948;SDS011;13961;51.178;4.448;2022-07-30T10:41:37;6.25;;;3.60;;
25948;SDS011;13961;51.178;4.448;2022-07-30T10:44:18;5.97;;;3.10;;
25948;SDS011;13961;51.178;4.448;2022-07-30T10:46:54;3.55;;;2.92;;
25948;SDS011;13961;51.178;4.448;2022-07-30T10:49:27;4.95;;;3.08;;
25948;SDS011;13961;51.178;4.448;2022-07-30T10:51:53;3.15;;;2.88;;
25948;SDS011;13961;51.178;4.448;2022-07-30T10:54:34;4.93;;;2.80;;
25948;SDS011;13961;51.178;4.448;2022-07-30T10:57:17;3.33;;;2.47;;
25948;SDS011;13961;51.178;4.448;2022-07-30T11:02:13;4.75;;;2.70;;
25948;SDS011;13961;51.178;4.448;2022-07-30T11:04:43;2.88;;;2.30;;
25948;SDS011;13961;51.178;4.448;2022-07-30T11:09:56;2.75;;;2.00;;
25948;SDS011;13961;51.178;4.448;2022-07-30T11:15:06;4.97;;;2.20;;
25948;SDS011;13961;51.178;4.448;2022-07-30T11:20:33;2.22;;;1.90;;
25948;SDS011;13961;51.178;4.448;2022-07-30T11:25:43;3.85;;;2.35;;
25948;SDS011;13961;51.178;4.448;2022-07-30T11:28:33;3.42;;;1.92;;
25948;SDS011;13961;51.178;4.448;2022-07-30T11:31:23;3.63;;;1.90;;
25948;SDS011;13961;51.178;4.448;2022-07-30T11:33:51;4.95;;;2.08;;
25948;SDS011;13961;51.178;4.448;2022-07-30T11:36:17;2.42;;;2.22;;
25948;SDS011;13961;51.178;4.448;2022-07-30T11:38:49;2.92;;;2.15;;
25948;SDS011;13961;51.178;4.448;2022-07-30T11:41:22;3.53;;;2.60;;
25948;SDS011;13961;51.178;4.448;2022-07-30T11:43:48;5.57;;;2.53;;
25948;SDS011;13961;51.178;4.448;2022-07-30T11:46:49;3.60;;;2.63;;
25948;SDS011;13961;51.178;4.448;2022-07-30T11:49:15;2.85;;;2.53;;
25948;SDS011;13961;51.178;4.448;2022-07-30T11:51:44;2.78;;;2.25;;
25948;SDS011;13961;51.178;4.448;2022-07-30T11:54:12;2.75;;;2.10;;
25948;SDS011;13961;51.178;4.448;2022-07-30T11:56:54;4.88;;;2.35;;
25948;SDS011;13961;51.178;4.448;2022-07-30T11:59:23;3.28;;;2.45;;
25948;SDS011;13961;51.178;4.448;2022-07-30T12:01:52;2.88;;;2.15;;
25948;SDS011;13961;51.178;4.448;2022-07-30T12:04:23;2.63;;;2.20;;
25948;SDS011;13961;51.178;4.448;2022-07-30T12:06:49;4.05;;;2.63;;
25948;SDS011;13961;51.178;4.448;2022-07-30T12:09:22;3.75;;;2.75;;
25948;SDS011;13961;51.178;4.448;2022-07-30T12:11:52;5.70;;;2.10;;
25948;SDS011;13961;51.178;4.448;2022-07-30T12:14:18;3.53;;;2.30;;
25948;SDS011;13961;51.178;4.448;2022-07-30T12:16:50;3.42;;;2.00;;
25948;SDS011;13961;51.178;4.448;2022-07-30T12:19:18;3.10;;;2.22;;
25948;SDS011;13961;51.178;4.448;2022-07-30T12:21:44;2.80;;;2.55;;
25948;SDS011;13961;51.178;4.448;2022-07-30T12:24:10;2.30;;;2.03;;
25948;SDS011;13961;51.178;4.448;2022-07-30T12:26:35;3.50;;;2.17;;
25948;SDS011;13961;51.178;4.448;2022-07-30T12:29:07;4.57;;;2.20;;
25948;SDS011;13961;51.178;4.448;2022-07-30T12:31:38;4.60;;;2.60;;
25948;SDS011;13961;51.178;4.448;2022-07-30T12:34:04;2.60;;;2.15;;
25948;SDS011;13961;51.178;4.448;2022-07-30T12:36:45;3.08;;;2.28;;
25948;SDS011;13961;51.178;4.448;2022-07-30T12:39:17;2.92;;;2.00;;
25948;SDS011;13961;51.178;4.448;2022-07-30T12:41:45;5.20;;;1.90;;
25948;SDS011;13961;51.178;4.448;2022-07-30T12:47:04;3.23;;;2.03;;
25948;SDS011;13961;51.178;4.448;2022-07-30T12:49:41;4.47;;;2.20;;
25948;SDS011;13961;51.178;4.448;2022-07-30T12:52:07;2.22;;;2.03;;
25948;SDS011;13961;51.178;4.448;2022-07-30T12:54:32;2.92;;;1.95;;
25948;SDS011;13961;51.178;4.448;2022-07-30T12:56:59;2.83;;;1.92;;
25948;SDS011;13961;51.178;4.448;2022-07-30T12:59:27;3.45;;;2.30;;
25948;SDS011;13961;51.178;4.448;2022-07-30T13:01:57;4.13;;;2.30;;
25948;SDS011;13961;51.178;4.448;2022-07-30T13:04:27;3.60;;;2.08;;
25948;SDS011;13961;51.178;4.448;2022-07-30T13:07:06;2.60;;;2.30;;
25948;SDS011;13961;51.178;4.448;2022-07-30T13:09:34;3.78;;;2.20;;
25948;SDS011;13961;51.178;4.448;2022-07-30T13:12:00;3.90;;;2.20;;
25948;SDS011;13961;51.178;4.448;2022-07-30T13:14:27;2.40;;;2.20;;
25948;SDS011;13961;51.178;4.448;2022-07-30T13:16:53;2.80;;;2.10;;
25948;SDS011;13961;51.178;4.448;2022-07-30T13:19:22;4.53;;;2.42;;
25948;SDS011;13961;51.178;4.448;2022-07-30T13:21:48;2.85;;;2.33;;
25948;SDS011;13961;51.178;4.448;2022-07-30T13:24:14;6.05;;;2.15;;
25948;SDS011;13961;51.178;4.448;2022-07-30T13:26:39;4.82;;;2.60;;
25948;SDS011;13961;51.178;4.448;2022-07-30T13:29:06;2.35;;;1.80;;
25948;SDS011;13961;51.178;4.448;2022-07-30T13:31:31;4.90;;;2.55;;
25948;SDS011;13961;51.178;4.448;2022-07-30T13:33:57;3.70;;;1.80;;
25948;SDS011;13961;51.178;4.448;2022-07-30T13:36:23;2.92;;;2.00;;
25948;SDS011;13961;51.178;4.448;2022-07-30T13:38:48;2.40;;;2.20;;
25948;SDS011;13961;51.178;4.448;2022-07-30T13:41:14;3.63;;;2.70;;
25948;SDS011;13961;51.178;4.448;2022-07-30T13:43:42;6.78;;;3.65;;
25948;SDS011;13961;51.178;4.448;2022-07-30T13:46:08;3.25;;;2.58;;
25948;SDS011;13961;51.178;4.448;2022-07-30T13:48:33;3.53;;;2.20;;
25948;SDS011;13961;51.178;4.448;2022-07-30T13:51:02;3.53;;;2.38;;
25948;SDS011;13961;51.178;4.448;2022-07-30T13:53:29;2.20;;;2.00;;
25948;SDS011;13961;51.178;4.448;2022-07-30T13:55:54;3.05;;;1.80;;
25948;SDS011;13961;51.178;4.448;2022-07-30T13:58:20;3.90;;;2.22;;
25948;SDS011;13961;51.178;4.448;2022-07-30T14:00:46;3.67;;;2.03;;
25948;SDS011;13961;51.178;4.448;2022-07-30T14:03:12;4.13;;;2.28;;
25948;SDS011;13961;51.178;4.448;2022-07-30T14:05:39;2.85;;;2.22;;
25948;SDS011;13961;51.178;4.448;2022-07-30T14:08:05;2.50;;;2.15;;
25948;SDS011;13961;51.178;4.448;2022-07-30T14:10:32;4.80;;;2.10;;
25948;SDS011;13961;51.178;4.448;2022-07-30T14:12:59;3.22;;;2.10;;
25948;SDS011;13961;51.178;4.448;2022-07-30T14:15:26;2.30;;;2.10;;
25948;SDS011;13961;51.178;4.448;2022-07-30T14:17:55;2.47;;;2.03;;
25948;SDS011;13961;51.178;4.448;2022-07-30T14:20:21;3.28;;;2.00;;
25948;SDS011;13961;51.178;4.448;2022-07-30T14:22:47;2.45;;;1.98;;
25948;SDS011;13961;51.178;4.448;2022-07-30T14:25:13;3.40;;;1.92;;
25948;SDS011;13961;51.178;4.448;2022-07-30T14:27:39;9.15;;;2.05;;
25948;SDS011;13961;51.178;4.448;2022-07-30T14:30:06;3.10;;;2.00;;
25948;SDS011;13961;51.178;4.448;2022-07-30T14:32:33;5.03;;;2.38;;
25948;SDS011;13961;51.178;4.448;2022-07-30T14:34:59;2.28;;;1.90;;
25948;SDS011;13961;51.178;4.448;2022-07-30T14:37:25;4.28;;;2.10;;
25948;SDS011;13961;51.178;4.448;2022-07-30T14:39:50;4.00;;;2.15;;
25948;SDS011;13961;51.178;4.448;2022-07-30T14:42:16;3.08;;;2.25;;
25948;SDS011;13961;51.178;4.448;2022-07-30T14:44:44;3.72;;;2.10;;
25948;SDS011;13961;51.178;4.448;2022-07-30T14:47:10;3.13;;;2.28;;
25948;SDS011;13961;51.178;4.448;2022-07-30T14:49:37;2.38;;;1.95;;
25948;SDS011;13961;51.178;4.448;2022-07-30T14:52:03;4.03;;;2.10;;
25948;SDS011;13961;51.178;4.448;2022-07-30T14:54:29;3.03;;;2.25;;
25948;SDS011;13961;51.178;4.448;2022-07-30T14:56:57;4.20;;;2.88;;
25948;SDS011;13961;51.178;4.448;2022-07-30T14:59:24;5.47;;;2.15;;
25948;SDS011;13961;51.178;4.448;2022-07-30T15:01:51;3.35;;;2.22;;
25948;SDS011;13961;51.178;4.448;2022-07-30T15:04:17;3.67;;;2.35;;
25948;SDS011;13961;51.178;4.448;2022-07-30T15:06:42;5.93;;;2.63;;
25948;SDS011;13961;51.178;4.448;2022-07-30T15:09:08;2.58;;;1.98;;
25948;SDS011;13961;51.178;4.448;2022-07-30T15:11:34;3.85;;;2.08;;
25948;SDS011;13961;51.178;4.448;2022-07-30T15:14:00;2.05;;;1.83;;
25948;SDS011;13961;51.178;4.448;2022-07-30T15:16:26;3.25;;;2.00;;
25948;SDS011;13961;51.178;4.448;2022-07-30T15:18:51;2.00;;;1.80;;
25948;SDS011;13961;51.178;4.448;2022-07-30T15:21:17;3.67;;;1.90;;